Dati Storici

Data ora Umidita' aria (%) Temperatura aria (°C) Rad globale (W/m²) Gonioanemometro (°) Tacoanemometro (m/s) Pioggia (mm)
09-10-2012 10:40 72.6 % 15.327 134.45 37.415 1.416 0
09-10-2012 10:30 71.5 % 15.112 94.589 1.098 1.272 0
09-10-2012 10:20 72.1 % 15.038 121.376 25.073 0.981 0
09-10-2012 10:10 71.6 % 14.857 87.295 339.488 1.081 0
09-10-2012 10:00 74.7 % 14.73 138.269 6.562 0.591 0
09-10-2012 09:50 76 % 14.641 125.248 27.778 1.107 0
09-10-2012 09:40 76.6 % 14.196 112.396 35.327 0.698 0
09-10-2012 09:30 75.8 % 13.966 58.664 79.133 0.459 0
09-10-2012 09:20 73.1 % 13.99 42.105 53.756 0.486 0
09-10-2012 09:10 71 % 14.557 22.143 27.462 1.843 0
09-10-2012 09:00 68.6 % 14.935 23.548 43.087 1.522 0
09-10-2012 08:50 68.4 % 14.976 56.336 40.966 1.62 0
09-10-2012 08:40 68.4 % 14.906 59.486 32.195 1.357 0
09-10-2012 08:30 68.7 % 14.86 34.885 15.041 1.386 0
09-10-2012 08:20 69.6 % 14.809 32.621 23.171 0.607 0
09-10-2012 08:10 69.7 % 14.684 42.894 42.457 1.78 0
09-10-2012 08:00 69.7 % 14.648 33.347 38.292 0.762 0
09-10-2012 07:50 69.6 % 14.594 20.955 9.46 1.341 0
09-10-2012 07:40 69.3 % 14.541 14.067 243.103 1.697 0
09-10-2012 07:30 69.3 % 14.508 8.69 83.324 0.496 0

I dati sono presentati in modo automatico a scopo informativo. In seguito a verifica i dati possono subire modifiche o essere invalidati e non riportati negli archivi definitivi.